^^
Datos históricos de la estación: Murcia-Puente Tocinos
Diario Informe para Agosto 06, 2020 Unidades:  Ambas    Ingés   Métrico
Diario Semanal Mensual Anual
  Máxima: Mínima: Promedio:
Temperatura: 89.1 °F /  31.7 °C 75.2 °F /  24 °C 81.1 °F /  27.3 °C
Punto de rocio: 70.9 °F /  21.6 °C 61.2 °F /  16.2 °C 67.1 °F /  19.5 °C
Humedad: 85% 39.6% 65%
Velocidad viento: 11.4mph /  18.4km/h - 5.3mph /  8.6km/h
Racha viento: 21mph /  33.8km/h - -
Viento- - Este
Presión: 30 in /  1015.9 hPa 29.9 in /  1012.8 hPa -
Precipitación: 0 in /  0.0 mm    
 
 
Tabla de datos para Agosto 06, 2020
Hora Temperatura Punto de rocio Presión Viento Velocidad viento Racha viento Humedad Intensidad lluvia(por hora) Nubes
00:04 77.7 °F /  25.4 °C 70 °F /  21.1 °C 29.9in /  1012.8hPa NE 4.7mph /  7.6km/h 8mph /  12.9km/h 77% 0in /  0.0mm
00:09 77.7 °F /  25.4 °C 70 °F /  21.1 °C 29.9in /  1012.8hPa NNE 4.7mph /  7.6km/h 7mph /  11.3km/h 77% 0in /  0.0mm
00:14 77.5 °F /  25.3 °C 69.8 °F /  21 °C 29.9in /  1012.8hPa NNE 4.6mph /  7.4km/h 7.4mph /  11.9km/h 77% 0in /  0.0mm
00:19 77.5 °F /  25.3 °C 70.2 °F /  21.2 °C 29.9in /  1012.8hPa NNE 4.3mph /  6.9km/h 6.9mph /  11.1km/h 78% 0in /  0.0mm
00:24 77.5 °F /  25.3 °C 70.2 °F /  21.2 °C 29.9in /  1012.9hPa NNE 4.5mph /  7.2km/h 8.5mph /  13.7km/h 78% 0in /  0.0mm
00:29 77.5 °F /  25.3 °C 70.2 °F /  21.2 °C 29.9in /  1012.9hPa NNE 5.2mph /  8.4km/h 9mph /  14.5km/h 78% 0in /  0.0mm
00:34 77.5 °F /  25.3 °C 70.2 °F /  21.2 °C 29.9in /  1012.9hPa NNE 5mph /  8km/h 8mph /  12.9km/h 78% 0in /  0.0mm
00:39 77.4 °F /  25.2 °C 70 °F /  21.1 °C 29.9in /  1012.9hPa NNE 4.3mph /  6.9km/h 8.1mph /  13km/h 78% 0in /  0.0mm
00:44 77.4 °F /  25.2 °C 70.2 °F /  21.2 °C 29.9in /  1012.9hPa NNE 4.5mph /  7.3km/h 8mph /  12.9km/h 78.8% 0in /  0.0mm
00:49 77.4 °F /  25.2 °C 70.3 °F /  21.3 °C 29.9in /  1012.9hPa NNE 5.2mph /  8.4km/h 7mph /  11.3km/h 79% 0in /  0.0mm
00:54 77.2 °F /  25.1 °C 70.2 °F /  21.2 °C 29.9in /  1013.0hPa NE 5.2mph /  8.4km/h 8.5mph /  13.7km/h 79% 0in /  0.0mm
00:59 77 °F /  25 °C 70.2 °F /  21.2 °C 29.9in /  1013.0hPa NNE 5.2mph /  8.4km/h 9mph /  14.5km/h 79% 0in /  0.0mm
01:04 76.8 °F /  24.9 °C 70.3 °F /  21.3 °C 29.9in /  1013.0hPa NNE 5.2mph /  8.4km/h 8mph /  12.9km/h 80% 0in /  0.0mm
01:09 76.8 °F /  24.9 °C 70.2 °F /  21.2 °C 29.9in /  1013.0hPa NNE 5.2mph /  8.4km/h 7mph /  11.3km/h 80% 0in /  0.0mm
01:14 76.6 °F /  24.8 °C 70.2 °F /  21.2 °C 29.9in /  1013.0hPa NNE 5mph /  8km/h 8.1mph /  13km/h 80% 0in /  0.0mm
01:19 76.6 °F /  24.8 °C 70 °F /  21.1 °C 29.9in /  1013.0hPa NE 4.3mph /  6.9km/h 8mph /  12.9km/h 80% 0in /  0.0mm
01:24 76.6 °F /  24.8 °C 70 °F /  21.1 °C 29.9in /  1013.1hPa NE 4mph /  6.4km/h 6mph /  9.7km/h 80% 0in /  0.0mm
01:29 76.6 °F /  24.8 °C 70 °F /  21.1 °C 29.9in /  1013.1hPa NNE 2.9mph /  4.7km/h 5.2mph /  8.4km/h 80% 0in /  0.0mm
01:34 76.6 °F /  24.8 °C 70 °F /  21.1 °C 29.9in /  1013.1hPa NNE 2.9mph /  4.7km/h 5.8mph /  9.3km/h 80% 0in /  0.0mm
01:39 76.5 °F /  24.7 °C 70 °F /  21.1 °C 29.9in /  1013.1hPa NNE 3.1mph /  5km/h 6.2mph /  10km/h 80.5% 0in /  0.0mm
01:44 76.5 °F /  24.7 °C 70.2 °F /  21.2 °C 29.9in /  1013.1hPa NNE 3.3mph /  5.3km/h 6.2mph /  10km/h 81% 0in /  0.0mm
01:49 76.5 °F /  24.7 °C 70.2 °F /  21.2 °C 29.9in /  1013.1hPa NNE 4mph /  6.4km/h 6.4mph /  10.3km/h 81% 0in /  0.0mm
01:54 76.3 °F /  24.6 °C 70 °F /  21.1 °C 29.9in /  1013.1hPa NNE 4.2mph /  6.7km/h 7mph /  11.3km/h 81% 0in /  0.0mm
01:59 76.3 °F /  24.6 °C 70 °F /  21.1 °C 29.9in /  1013.0hPa NNE 4.7mph /  7.6km/h 7mph /  11.3km/h 81% 0in /  0.0mm
02:04 76.3 °F /  24.6 °C 70 °F /  21.1 °C 29.9in /  1013.0hPa NNE 4.5mph /  7.3km/h 6.9mph /  11.1km/h 81% 0in /  0.0mm
02:09 76.1 °F /  24.5 °C 70 °F /  21.1 °C 29.9in /  1013.0hPa NE 4mph /  6.5km/h 7mph /  11.3km/h 81.6% 0in /  0.0mm
02:14 76.1 °F /  24.5 °C 70.2 °F /  21.2 °C 29.9in /  1013.0hPa NNE 4mph /  6.5km/h 7mph /  11.3km/h 82% 0in /  0.0mm
02:19 75.9 °F /  24.4 °C 70 °F /  21.1 °C 29.9in /  1013.0hPa NNE 4mph /  6.5km/h 6mph /  9.7km/h 82% 0in /  0.0mm
02:24 76.1 °F /  24.5 °C 70.2 °F /  21.2 °C 29.9in /  1013.0hPa NNE 3.9mph /  6.3km/h 5.9mph /  9.5km/h 82% 0in /  0.0mm
02:29 76.1 °F /  24.5 °C 70.2 °F /  21.2 °C 29.9in /  1013.0hPa NNE 3.6mph /  5.8km/h 7.4mph /  11.9km/h 82% 0in /  0.0mm
02:34 75.9 °F /  24.4 °C 70 °F /  21.1 °C 29.9in /  1013.0hPa NNE 3.7mph /  5.9km/h 6.9mph /  11.1km/h 82% 0in /  0.0mm
02:39 75.9 °F /  24.4 °C 70 °F /  21.1 °C 29.9in /  1013.1hPa NNE 4mph /  6.4km/h 7mph /  11.3km/h 82% 0in /  0.0mm
02:44 75.9 °F /  24.4 °C 70 °F /  21.1 °C 29.9in /  1013.1hPa NNE 3.9mph /  6.3km/h 6mph /  9.7km/h 82% 0in /  0.0mm
02:49 75.9 °F /  24.4 °C 70 °F /  21.1 °C 29.9in /  1013.1hPa NNE 3.6mph /  5.8km/h 5.9mph /  9.5km/h 82% 0in /  0.0mm
02:54 75.9 °F /  24.4 °C 70 °F /  21.1 °C 29.9in /  1013.1hPa NNE 3.6mph /  5.8km/h 6.9mph /  11.1km/h 82% 0in /  0.0mm
02:59 75.7 °F /  24.3 °C 70 °F /  21.1 °C 29.9in /  1013.1hPa NNE 3.6mph /  5.8km/h 7mph /  11.3km/h 82.3% 0in /  0.0mm
03:04 75.7 °F /  24.3 °C 70.2 °F /  21.2 °C 29.9in /  1013.1hPa NE 3.6mph /  5.8km/h 6mph /  9.7km/h 83% 0in /  0.0mm
03:09 75.6 °F /  24.2 °C 70 °F /  21.1 °C 29.9in /  1013.1hPa NE 3.6mph /  5.8km/h 6mph /  9.7km/h 83% 0in /  0.0mm
03:14 75.6 °F /  24.2 °C 70 °F /  21.1 °C 29.9in /  1013.1hPa NE 3.6mph /  5.8km/h 6mph /  9.7km/h 83% 0in /  0.0mm
03:19 75.6 °F /  24.2 °C 70.2 °F /  21.2 °C 29.9in /  1013.1hPa NNE 3.6mph /  5.8km/h 6mph /  9.7km/h 83.3% 0in /  0.0mm
03:24 75.6 °F /  24.2 °C 70.2 °F /  21.2 °C 29.9in /  1013.1hPa North 3.5mph /  5.6km/h 6mph /  9.7km/h 83.5% 0in /  0.0mm
03:29 75.7 °F /  24.3 °C 70.2 °F /  21.2 °C 29.9in /  1013.1hPa NNO 3.1mph /  5km/h 5mph /  8km/h 83% 0in /  0.0mm
03:34 75.7 °F /  24.3 °C 70.2 °F /  21.2 °C 29.9in /  1013.1hPa NNO 2.4mph /  3.9km/h 2.4mph /  3.9km/h 83% 0in /  0.0mm
03:39 75.6 °F /  24.2 °C 70 °F /  21.1 °C 29.9in /  1013.2hPa Calm   2.4mph /  3.9km/h 83% 0in /  0.0mm
03:44 75.6 °F /  24.2 °C 70 °F /  21.1 °C 29.9in /  1013.2hPa NO 0.3mph /  0.5km/h 2.4mph /  3.9km/h 83% 0in /  0.0mm
03:49 75.6 °F /  24.2 °C 70 °F /  21.1 °C 29.9in /  1013.2hPa NO 1.4mph /  2.2km/h 2.3mph /  3.7km/h 83% 0in /  0.0mm
03:54 75.6 °F /  24.2 °C 70 °F /  21.1 °C 29.9in /  1013.2hPa NO 1.1mph /  1.8km/h 2.4mph /  3.9km/h 83% 0in /  0.0mm
03:59 75.7 °F /  24.3 °C 70.2 °F /  21.2 °C 29.9in /  1013.2hPa Calm   3.5mph /  5.6km/h 83% 0in /  0.0mm
04:04 75.7 °F /  24.3 °C 70.2 °F /  21.2 °C 29.9in /  1013.2hPa NNE 0.2mph /  0.4km/h 3mph /  4.8km/h 83% 0in /  0.0mm
04:09 75.7 °F /  24.3 °C 70.3 °F /  21.3 °C 29.9in /  1013.2hPa NNE 1.4mph /  2.2km/h 3.5mph /  5.6km/h 83% 0in /  0.0mm
04:14 75.9 °F /  24.4 °C 70.3 °F /  21.3 °C 29.9in /  1013.2hPa NNE 1.5mph /  2.4km/h 4.6mph /  7.4km/h 83% 0in /  0.0mm
04:19 75.9 °F /  24.4 °C 70.3 °F /  21.3 °C 29.9in /  1013.2hPa NNE 1.8mph /  2.9km/h 5mph /  8km/h 83% 0in /  0.0mm
04:24 75.9 °F /  24.4 °C 70.3 °F /  21.3 °C 29.9in /  1013.2hPa NE 1.9mph /  3km/h 5mph /  8km/h 83% 0in /  0.0mm
04:29 75.9 °F /  24.4 °C 70.3 °F /  21.3 °C 29.9in /  1013.2hPa NE 2mph /  3.2km/h 4mph /  6.4km/h 83% 0in /  0.0mm
04:34 75.9 °F /  24.4 °C 70.3 °F /  21.3 °C 29.9in /  1013.2hPa North 1.6mph /  2.6km/h 3.5mph /  5.6km/h 83% 0in /  0.0mm
04:39 75.9 °F /  24.4 °C 70.3 °F /  21.3 °C 29.9in /  1013.2hPa Calm   3.6mph /  5.8km/h 83% 0in /  0.0mm
04:44 75.9 °F /  24.4 °C 70.3 °F /  21.3 °C 29.9in /  1013.2hPa NO 0.3mph /  0.5km/h 4mph /  6.4km/h 83% 0in /  0.0mm
04:49 75.9 °F /  24.4 °C 70.3 °F /  21.3 °C 29.9in /  1013.2hPa NO 1.4mph /  2.3km/h   83% 0in /  0.0mm
04:54 75.9 °F /  24.4 °C 70.3 °F /  21.3 °C 29.9in /  1013.3hPa NO 1.1mph /  1.8km/h 2.9mph /  4.7km/h 83% 0in /  0.0mm
04:59 75.9 °F /  24.4 °C 70.3 °F /  21.3 °C 29.9in /  1013.3hPa Calm   3mph /  4.8km/h 83% 0in /  0.0mm
05:04 75.9 °F /  24.4 °C 70.3 °F /  21.3 °C 29.9in /  1013.3hPa NO 0.4mph /  0.7km/h 3.6mph /  5.8km/h 83% 0in /  0.0mm
05:09 75.7 °F /  24.3 °C 70.2 °F /  21.2 °C 29.9in /  1013.3hPa ONO 1.8mph /  2.9km/h 4.6mph /  7.4km/h 83% 0in /  0.0mm
05:14 75.7 °F /  24.3 °C 70.2 °F /  21.2 °C 29.9in /  1013.3hPa ONO 1.9mph /  3.1km/h 5mph /  8km/h 83% 0in /  0.0mm
05:19 75.7 °F /  24.3 °C 70.3 °F /  21.3 °C 29.9in /  1013.3hPa ONO 2.4mph /  3.9km/h 5mph /  8km/h 83.6% 0in /  0.0mm
05:24 75.6 °F /  24.2 °C 70.5 °F /  21.4 °C 29.9in /  1013.5hPa ONO 2.3mph /  3.7km/h 3.6mph /  5.8km/h 84% 0in /  0.0mm
05:29 75.6 °F /  24.2 °C 70.3 °F /  21.3 °C 29.9in /  1013.5hPa ONO 1.8mph /  2.9km/h 4mph /  6.4km/h 84% 0in /  0.0mm
05:34 75.6 °F /  24.2 °C 70.3 °F /  21.3 °C 29.9in /  1013.5hPa ONO 1.7mph /  2.8km/h 3mph /  4.8km/h 84% 0in /  0.0mm
05:39 75.6 °F /  24.2 °C 70.5 °F /  21.4 °C 29.9in /  1013.5hPa ONO 1.4mph /  2.2km/h 3.5mph /  5.6km/h 84% 0in /  0.0mm
05:44 75.7 °F /  24.3 °C 70.5 °F /  21.4 °C 29.9in /  1013.5hPa ONO 1.5mph /  2.4km/h 3.6mph /  5.8km/h 84% 0in /  0.0mm
05:49 75.7 °F /  24.3 °C 70.5 °F /  21.4 °C 29.9in /  1013.5hPa NO 1.8mph /  2.9km/h 4mph /  6.4km/h 84% 0in /  0.0mm
05:54 75.7 °F /  24.3 °C 70.5 °F /  21.4 °C 29.9in /  1013.5hPa NO 1.8mph /  2.9km/h 4.6mph /  7.4km/h 84% 0in /  0.0mm
05:59 75.6 °F /  24.2 °C 70.5 °F /  21.4 °C 29.9in /  1013.5hPa NO 1.8mph /  2.9km/h 4.6mph /  7.4km/h 84% 0in /  0.0mm
06:04 75.6 °F /  24.2 °C 70.3 °F /  21.3 °C 29.9in /  1013.5hPa ONO 1.9mph /  3km/h 5mph /  8km/h 84% 0in /  0.0mm
06:09 75.6 °F /  24.2 °C 70.3 °F /  21.3 °C 29.9in /  1013.6hPa Oeste 2mph /  3.2km/h 4mph /  6.4km/h 84% 0in /  0.0mm
06:14 75.6 °F /  24.2 °C 70.3 °F /  21.3 °C 29.9in /  1013.6hPa Oeste 2mph /  3.2km/h 3.5mph /  5.6km/h 84% 0in /  0.0mm
06:19 75.4 °F /  24.1 °C 70.2 °F /  21.2 °C 29.9in /  1013.6hPa Oeste 1.8mph /  2.9km/h 3mph /  4.8km/h 84% 0in /  0.0mm
06:24 75.4 °F /  24.1 °C 70.2 °F /  21.2 °C 29.9in /  1013.7hPa ONO 1.7mph /  2.8km/h 3.5mph /  5.6km/h 84% 0in /  0.0mm
06:29 75.4 °F /  24.1 °C 70.2 °F /  21.2 °C 29.9in /  1013.7hPa ONO 1.4mph /  2.2km/h 3.5mph /  5.6km/h 84% 0in /  0.0mm
06:34 75.4 °F /  24.1 °C 70.2 °F /  21.2 °C 29.9in /  1013.7hPa ONO 1.5mph /  2.4km/h 3.5mph /  5.6km/h 84% 0in /  0.0mm
06:39 75.4 °F /  24.1 °C 70.2 °F /  21.2 °C 29.9in /  1013.8hPa ONO 1.8mph /  2.9km/h 3.5mph /  5.6km/h 84% 0in /  0.0mm
06:44 75.2 °F /  24 °C 70 °F /  21.1 °C 29.9in /  1013.8hPa ONO 1.7mph /  2.7km/h 3mph /  4.8km/h 84% 0in /  0.0mm
06:49 75.2 °F /  24 °C 70 °F /  21.1 °C 29.9in /  1013.8hPa ONO 1.4mph /  2.2km/h 2.9mph /  4.7km/h 84% 0in /  0.0mm
06:54 75.2 °F /  24 °C 70.2 °F /  21.2 °C 29.9in /  1014.0hPa Oeste 1.5mph /  2.4km/h 2.9mph /  4.7km/h 84.5% 0in /  0.0mm
06:59 75.4 °F /  24.1 °C 70.5 °F /  21.4 °C 29.9in /  1014.0hPa Oeste 1.8mph /  2.9km/h 3.1mph /  5km/h 85% 0in /  0.0mm
07:04 75.4 °F /  24.1 °C 70.3 °F /  21.3 °C 29.9in /  1014.0hPa Oeste 1.7mph /  2.8km/h 3mph /  4.8km/h 84.3% 0in /  0.0mm
07:09 75.4 °F /  24.1 °C 70.2 °F /  21.2 °C 30in /  1014.2hPa OSO 1.4mph /  2.2km/h 3.5mph /  5.6km/h 84.1% 0in /  0.0mm
07:14 75.4 °F /  24.1 °C 70.2 °F /  21.2 °C 30in /  1014.2hPa SO 1.4mph /  2.3km/h 2.4mph /  3.9km/h 84% 0in /  0.0mm
07:19 75.4 °F /  24.1 °C 70.2 °F /  21.2 °C 30in /  1014.2hPa SO 1.4mph /  2.2km/h 2mph /  3.2km/h 84% 0in /  0.0mm
07:24 75.6 °F /  24.2 °C 70.3 °F /  21.3 °C 30in /  1014.2hPa SO 1.1mph /  1.8km/h   84% 0in /  0.0mm
07:29 75.6 °F /  24.2 °C 70.3 °F /  21.3 °C 29.9in /  1014.1hPa Calm     84% 0in /  0.0mm
07:34 75.6 °F /  24.2 °C 70.3 °F /  21.3 °C 29.9in /  1014.1hPa Calm     84% 0in /  0.0mm
07:39 75.6 °F /  24.2 °C 70.3 °F /  21.3 °C 29.9in /  1014.1hPa Calm     84% 0in /  0.0mm
07:44 75.6 °F /  24.2 °C 70.5 °F /  21.4 °C 29.9in /  1014.1hPa Calm     84% 0in /  0.0mm
07:49 75.7 °F /  24.3 °C 70.5 °F /  21.4 °C 29.9in /  1014.1hPa Calm   4mph /  6.4km/h 83.6% 0in /  0.0mm
07:54 75.6 °F /  24.2 °C 70.2 °F /  21.2 °C 30in /  1014.3hPa ESE 0.2mph /  0.4km/h 5mph /  8km/h 83% 0in /  0.0mm
07:59 75.7 °F /  24.3 °C 70 °F /  21.1 °C 30in /  1014.3hPa SE 1.4mph /  2.2km/h 4.6mph /  7.4km/h 82.2% 0in /  0.0mm
08:04 75.7 °F /  24.3 °C 70.2 °F /  21.2 °C 30in /  1014.3hPa Sur 1.6mph /  2.5km/h 5mph /  8km/h 82.8% 0in /  0.0mm
08:09 76.1 °F /  24.5 °C 70.5 °F /  21.4 °C 30in /  1014.3hPa SSO 2mph /  3.2km/h 4mph /  6.4km/h 83% 0in /  0.0mm
08:14 76.3 °F /  24.6 °C 70.5 °F /  21.4 °C 30in /  1014.3hPa SO 1.9mph /  3km/h 3.6mph /  5.8km/h 82.1% 0in /  0.0mm
08:19 76.3 °F /  24.6 °C 70.5 °F /  21.4 °C 30in /  1014.3hPa OSO 1.4mph /  2.2km/h 4mph /  6.4km/h 82% 0in /  0.0mm
08:24 76.6 °F /  24.8 °C 70.9 °F /  21.6 °C 30in /  1014.4hPa ONO 1.5mph /  2.4km/h 4.6mph /  7.4km/h 82.3% 0in /  0.0mm
08:29 77 °F /  25 °C 70.7 °F /  21.5 °C 30in /  1014.4hPa NNO 1.8mph /  2.9km/h 5mph /  8km/h 81.1% 0in /  0.0mm
08:34 77.4 °F /  25.2 °C 70.7 °F /  21.5 °C 30in /  1014.4hPa North 1.8mph /  2.9km/h 4mph /  6.4km/h 80.3% 0in /  0.0mm
08:39 77.5 °F /  25.3 °C 70.9 °F /  21.6 °C 30in /  1014.6hPa NNO 1.8mph /  2.9km/h 4mph /  6.4km/h 79.8% 0in /  0.0mm
08:44 77.9 °F /  25.5 °C 70.7 °F /  21.5 °C 30in /  1014.6hPa NNO 1.9mph /  3km/h 4.6mph /  7.4km/h 78.6% 0in /  0.0mm
08:49 78.1 °F /  25.6 °C 70.7 °F /  21.5 °C 30in /  1014.6hPa NNE 2mph /  3.2km/h 5mph /  8km/h 77.7% 0in /  0.0mm
08:54 78.3 °F /  25.7 °C 70.5 °F /  21.4 °C 30in /  1014.8hPa NNE 2.1mph /  3.4km/h 4mph /  6.4km/h 77.1% 0in /  0.0mm
08:59 78.4 °F /  25.8 °C 70.5 °F /  21.4 °C 30in /  1014.8hPa NNE 2.4mph /  3.9km/h 5mph /  8km/h 77% 0in /  0.0mm
09:04 78.6 °F /  25.9 °C 70.7 °F /  21.5 °C 30in /  1014.8hPa NNE 2.4mph /  3.9km/h 5mph /  8km/h 76.8% 0in /  0.0mm
09:09 78.8 °F /  26 °C 70.7 °F /  21.5 °C 30in /  1014.9hPa North 2.4mph /  3.9km/h 5mph /  8km/h 76% 0in /  0.0mm
09:14 79.2 °F /  26.2 °C 70.7 °F /  21.5 °C 30in /  1014.9hPa NO 2.2mph /  3.6km/h 3mph /  4.8km/h 75.7% 0in /  0.0mm
09:19 79.3 °F /  26.3 °C 70.7 °F /  21.5 °C 30in /  1014.9hPa North 1.8mph /  2.9km/h 4.7mph /  7.6km/h 74.9% 0in /  0.0mm
09:24 79.5 °F /  26.4 °C 70.5 °F /  21.4 °C 30in /  1014.9hPa NNE 1.9mph /  3km/h 5.8mph /  9.3km/h 74.1% 0in /  0.0mm
09:29 79.5 °F /  26.4 °C 70.5 °F /  21.4 °C 30in /  1014.9hPa NE 2mph /  3.2km/h 6mph /  9.7km/h 74% 0in /  0.0mm
09:34 79.5 °F /  26.4 °C 70.5 °F /  21.4 °C 30in /  1014.9hPa NNE 2.2mph /  3.6km/h 5.8mph /  9.3km/h 74% 0in /  0.0mm
09:39 79.5 °F /  26.4 °C 70.5 °F /  21.4 °C 30in /  1015.1hPa NE 3.1mph /  5km/h 8.1mph /  13km/h 74% 0in /  0.0mm
09:44 79.3 °F /  26.3 °C 70.3 °F /  21.3 °C 30in /  1015.1hPa NNE 3.3mph /  5.3km/h 8mph /  12.9km/h 74% 0in /  0.0mm
09:49 79 °F /  26.1 °C 70 °F /  21.1 °C 30in /  1015.1hPa North 4mph /  6.4km/h 7.4mph /  11.9km/h 74.1% 0in /  0.0mm
09:54 79.2 °F /  26.2 °C 70.2 °F /  21.2 °C 30in /  1015.1hPa North 4mph /  6.5km/h 7.4mph /  11.9km/h 74% 0in /  0.0mm
09:59 79.2 °F /  26.2 °C 70 °F /  21.1 °C 30in /  1015.1hPa NNE 4mph /  6.5km/h 9.2mph /  14.8km/h 73.5% 0in /  0.0mm
10:04 79 °F /  26.1 °C 69.4 °F /  20.8 °C 30in /  1015.1hPa NE 4.2mph /  6.7km/h 9mph /  14.5km/h 72.8% 0in /  0.0mm
10:09 79 °F /  26.1 °C 69.3 °F /  20.7 °C 30in /  1015.1hPa NE 4.7mph /  7.6km/h 8.5mph /  13.7km/h 71.9% 0in /  0.0mm
10:14 79.2 °F /  26.2 °C 69.1 °F /  20.6 °C 30in /  1015.1hPa NE 4.7mph /  7.6km/h 9.2mph /  14.8km/h 71.5% 0in /  0.0mm
10:19 79.3 °F /  26.3 °C 69.1 °F /  20.6 °C 30in /  1015.1hPa NE 4.7mph /  7.6km/h 9.7mph /  15.6km/h 71% 0in /  0.0mm
10:24 79.7 °F /  26.5 °C 69.3 °F /  20.7 °C 30in /  1015.2hPa North 4.8mph /  7.8km/h 10mph /  16.1km/h 70.5% 0in /  0.0mm
10:29 80.1 °F /  26.7 °C 69.1 °F /  20.6 °C 30in /  1015.2hPa NE 5.2mph /  8.4km/h 10.4mph /  16.7km/h 69.2% 0in /  0.0mm
10:34 80.2 °F /  26.8 °C 68.7 °F /  20.4 °C 30in /  1015.2hPa North 5mph /  8km/h 10mph /  16.1km/h 68.3% 0in /  0.0mm
10:39 80.8 °F /  27.1 °C 69.4 °F /  20.8 °C 30in /  1015.3hPa NE 4.3mph /  6.9km/h 8mph /  12.9km/h 68.7% 0in /  0.0mm
10:44 81.1 °F /  27.3 °C 68.9 °F /  20.5 °C 30in /  1015.3hPa NNE 4.3mph /  6.9km/h 10.4mph /  16.7km/h 66.6% 0in /  0.0mm
10:49 81.1 °F /  27.3 °C 68.7 °F /  20.4 °C 30in /  1015.3hPa NNE 4.3mph /  6.9km/h 11.5mph /  18.5km/h 65.9% 0in /  0.0mm
10:54 81.1 °F /  27.3 °C 68.5 °F /  20.3 °C 30in /  1015.4hPa North 4.6mph /  7.4km/h 12mph /  19.3km/h 65.4% 0in /  0.0mm
10:59 81.1 °F /  27.3 °C 68.5 °F /  20.3 °C 30in /  1015.4hPa North 5.9mph /  9.5km/h 10mph /  16.1km/h 65.5% 0in /  0.0mm
11:04 81.3 °F /  27.4 °C 68.7 °F /  20.4 °C 30in /  1015.4hPa NO 5.4mph /  8.7km/h 9mph /  14.5km/h 65.3% 0in /  0.0mm
11:09 81.7 °F /  27.6 °C 69.1 °F /  20.6 °C 30in /  1015.4hPa North 4mph /  6.5km/h 8.5mph /  13.7km/h 65.8% 0in /  0.0mm
11:14 81.9 °F /  27.7 °C 68.9 °F /  20.5 °C 30in /  1015.4hPa North 4mph /  6.5km/h 9mph /  14.5km/h 64.7% 0in /  0.0mm
11:19 82 °F /  27.8 °C 68.5 °F /  20.3 °C 30in /  1015.4hPa Oeste 4mph /  6.4km/h 6.9mph /  11.1km/h 63.9% 0in /  0.0mm
11:24 82 °F /  27.8 °C 68.4 °F /  20.2 °C 30in /  1015.5hPa NNE 3.8mph /  6.1km/h 8.7mph /  14km/h 63% 0in /  0.0mm
11:29 82.4 °F /  28 °C 68 °F /  20 °C 30in /  1015.5hPa NNE 2.9mph /  4.7km/h 10mph /  16.1km/h 62.1% 0in /  0.0mm
11:34 82.8 °F /  28.2 °C 68 °F /  20 °C 30in /  1015.5hPa Sur 3.2mph /  5.2km/h 10.7mph /  17.2km/h 61.3% 0in /  0.0mm
11:39 82.9 °F /  28.3 °C 67.8 °F /  19.9 °C 30in /  1015.5hPa NNE 4.7mph /  7.6km/h 11mph /  17.7km/h 60.5% 0in /  0.0mm
11:44 82.9 °F /  28.3 °C 67.6 °F /  19.8 °C 30in /  1015.4hPa NNE 5mph /  8.1km/h 11mph /  17.7km/h 60.2% 0in /  0.0mm
11:49 82.9 °F /  28.3 °C 67.8 °F /  19.9 °C 30in /  1015.4hPa NNE 6.4mph /  10.3km/h 11.4mph /  18.3km/h 60.1% 0in /  0.0mm
11:54 83.5 °F /  28.6 °C 68 °F /  20 °C 30in /  1015.4hPa North 6.2mph /  9.9km/h 11.2mph /  18km/h 59.7% 0in /  0.0mm
11:59 83.7 °F /  28.7 °C 67.5 °F /  19.7 °C 30in /  1015.4hPa NE 5.2mph /  8.4km/h 12mph /  19.3km/h 58.3% 0in /  0.0mm
12:04 83.8 °F /  28.8 °C 67.1 °F /  19.5 °C 30in /  1015.4hPa North 5.5mph /  8.9km/h 12.7mph /  20.4km/h 57.3% 0in /  0.0mm
12:09 83.8 °F /  28.8 °C 67.3 °F /  19.6 °C 30in /  1015.4hPa NNE 6.4mph /  10.3km/h 13mph /  20.9km/h 57.5% 0in /  0.0mm
12:14 84.2 °F /  29 °C 67.1 °F /  19.5 °C 30in /  1015.4hPa NNE 6.1mph /  9.8km/h 11mph /  17.7km/h 56.7% 0in /  0.0mm
12:19 84.6 °F /  29.2 °C 67.1 °F /  19.5 °C 30in /  1015.4hPa NE 4.7mph /  7.6km/h 11.5mph /  18.5km/h 55.9% 0in /  0.0mm
12:24 84.7 °F /  29.3 °C 67.5 °F /  19.7 °C 30in /  1015.4hPa NNE 4.8mph /  7.8km/h 12mph /  19.3km/h 56.4% 0in /  0.0mm
12:29 85.1 °F /  29.5 °C 67.1 °F /  19.5 °C 30in /  1015.2hPa NNE 5.4mph /  8.7km/h 10.4mph /  16.7km/h 55.1% 0in /  0.0mm
12:34 85.5 °F /  29.7 °C 66.7 °F /  19.3 °C 30in /  1015.2hPa ENE 5.5mph /  8.9km/h 11.5mph /  18.5km/h 53.6% 0in /  0.0mm
12:39 86 °F /  30 °C 65.5 °F /  18.6 °C 30in /  1015.2hPa NE 5.9mph /  9.5km/h 12mph /  19.3km/h 50.4% 0in /  0.0mm
12:44 86.2 °F /  30.1 °C 65.1 °F /  18.4 °C 30in /  1015.0hPa NNE 5.8mph /  9.3km/h 11.4mph /  18.3km/h 49.6% 0in /  0.0mm
12:49 86.2 °F /  30.1 °C 63.5 °F /  17.5 °C 30in /  1015.0hPa NE 5.2mph /  8.4km/h 14mph /  22.5km/h 46.8% 0in /  0.0mm
12:54 86.2 °F /  30.1 °C 63.7 °F /  17.6 °C 30in /  1015.0hPa Este 5.7mph /  9.1km/h 14mph /  22.5km/h 47% 0in /  0.0mm
12:59 86.4 °F /  30.2 °C 63.3 °F /  17.4 °C 30in /  1014.9hPa ENE 7.6mph /  12.2km/h 14mph /  22.5km/h 46.5% 0in /  0.0mm
13:04 86.4 °F /  30.2 °C 63.1 °F /  17.3 °C 30in /  1014.9hPa NNE 7.3mph /  11.8km/h 14mph /  22.5km/h 45.8% 0in /  0.0mm
13:09 86.5 °F /  30.3 °C 62.6 °F /  17 °C 30in /  1014.9hPa North 6.2mph /  10km/h 12mph /  19.3km/h 44.7% 0in /  0.0mm
13:14 86.7 °F /  30.4 °C 62.6 °F /  17 °C 30in /  1014.8hPa NE 6.2mph /  10km/h 12mph /  19.3km/h 44.5% 0in /  0.0mm
13:19 86.9 °F /  30.5 °C 62.4 °F /  16.9 °C 30in /  1014.8hPa NNE 6.4mph /  10.3km/h 12.7mph /  20.4km/h 44.1% 0in /  0.0mm
13:24 86.9 °F /  30.5 °C 63 °F /  17.2 °C 30in /  1014.8hPa NNE 6.6mph /  10.6km/h 13.8mph /  22.2km/h 45% 0in /  0.0mm
13:29 87.1 °F /  30.6 °C 62.2 °F /  16.8 °C 30in /  1014.7hPa NNE 7.4mph /  11.9km/h 14mph /  22.5km/h 43.7% 0in /  0.0mm
13:34 87.3 °F /  30.7 °C 62.6 °F /  17 °C 30in /  1014.7hPa NNE 7.6mph /  12.2km/h 14mph /  22.5km/h 43.8% 0in /  0.0mm
13:39 87.6 °F /  30.9 °C 62.6 °F /  17 °C 30in /  1014.7hPa NNE 8.1mph /  13km/h 13.8mph /  22.2km/h 43.5% 0in /  0.0mm
13:44 87.4 °F /  30.8 °C 63.3 °F /  17.4 °C 30in /  1014.6hPa NE 8mph /  12.8km/h 14mph /  22.5km/h 44.5% 0in /  0.0mm
13:49 87.6 °F /  30.9 °C 63.3 °F /  17.4 °C 30in /  1014.6hPa NNE 7.4mph /  11.9km/h 17.3mph /  27.8km/h 44.6% 0in /  0.0mm
13:54 87.4 °F /  30.8 °C 62.8 °F /  17.1 °C 30in /  1014.6hPa NE 7.8mph /  12.5km/h 17.3mph /  27.8km/h 44% 0in /  0.0mm
13:59 87.4 °F /  30.8 °C 62.8 °F /  17.1 °C 30in /  1014.6hPa NNE 8.7mph /  14km/h 16mph /  25.7km/h 43.9% 0in /  0.0mm
14:04 87.6 °F /  30.9 °C 62.1 °F /  16.7 °C 30in /  1014.6hPa NNE 8.9mph /  14.3km/h 16.3mph /  26.2km/h 42.6% 0in /  0.0mm
14:09 87.4 °F /  30.8 °C 61.9 °F /  16.6 °C 30in /  1014.6hPa NNE 9.7mph /  15.6km/h 17.5mph /  28.2km/h 42.5% 0in /  0.0mm
14:14 87.4 °F /  30.8 °C 61.7 °F /  16.5 °C 30in /  1014.5hPa NNE 9.5mph /  15.3km/h 17mph /  27.4km/h 42.3% 0in /  0.0mm
14:19 87.6 °F /  30.9 °C 62.1 °F /  16.7 °C 30in /  1014.5hPa NE 8.7mph /  14km/h 15mph /  24.1km/h 42.5% 0in /  0.0mm
14:24 88.3 °F /  31.3 °C 62.2 °F /  16.8 °C 30in /  1014.5hPa NE 8.4mph /  13.5km/h 18.5mph /  29.8km/h 41.8% 0in /  0.0mm
14:29 88.7 °F /  31.5 °C 61.7 °F /  16.5 °C 30in /  1014.4hPa NE 7.4mph /  11.9km/h 19mph /  30.6km/h 40.7% 0in /  0.0mm
14:34 88.5 °F /  31.4 °C 61.7 °F /  16.5 °C 30in /  1014.4hPa NE 7.8mph /  12.6km/h 18mph /  29km/h 40.7% 0in /  0.0mm
14:39 88.9 °F /  31.6 °C 61.7 °F /  16.5 °C 30in /  1014.4hPa NNE 9.7mph /  15.6km/h 17mph /  27.4km/h 40.6% 0in /  0.0mm
14:44 88.3 °F /  31.3 °C 61.5 °F /  16.4 °C 30in /  1014.3hPa NNE 9.6mph /  15.4km/h 17.3mph /  27.8km/h 40.6% 0in /  0.0mm
14:49 88.2 °F /  31.2 °C 61.3 °F /  16.3 °C 30in /  1014.3hPa NNE 9.2mph /  14.8km/h 16.1mph /  25.9km/h 40.7% 0in /  0.0mm
14:54 88.3 °F /  31.3 °C 61.3 °F /  16.3 °C 30in /  1014.3hPa NNE 9.3mph /  15km/h 16.1mph /  25.9km/h 40.7% 0in /  0.0mm
14:59 88.5 °F /  31.4 °C 61.7 °F /  16.5 °C 30in /  1014.3hPa NNE 9.7mph /  15.6km/h 17.3mph /  27.8km/h 40.9% 0in /  0.0mm
15:04 88.5 °F /  31.4 °C 62.2 °F /  16.8 °C 30in /  1014.3hPa NNE 9.6mph /  15.4km/h 17mph /  27.4km/h 41.7% 0in /  0.0mm
15:09 88.7 °F /  31.5 °C 62.2 °F /  16.8 °C 30in /  1014.3hPa NNE 9.2mph /  14.8km/h 15.9mph /  25.6km/h 41.3% 0in /  0.0mm
15:14 88.9 °F /  31.6 °C 61.7 °F /  16.5 °C 30in /  1014.2hPa NNE 9.1mph /  14.6km/h 18.5mph /  29.8km/h 40.4% 0in /  0.0mm
15:19 88.7 °F /  31.5 °C 61.7 °F /  16.5 °C 30in /  1014.2hPa NE 8.7mph /  14km/h 19mph /  30.6km/h 40.5% 0in /  0.0mm
15:24 88.7 °F /  31.5 °C 62.1 °F /  16.7 °C 30in /  1014.2hPa NE 8.9mph /  14.4km/h 19mph /  30.6km/h 41% 0in /  0.0mm
15:29 88.7 °F /  31.5 °C 62.1 °F /  16.7 °C 30in /  1014.2hPa NE 10mph /  16.1km/h 19mph /  30.6km/h 41.1% 0in /  0.0mm
15:34 88.5 °F /  31.4 °C 62.1 °F /  16.7 °C 30in /  1014.2hPa NNE 10.1mph /  16.3km/h 18.4mph /  29.6km/h 41.4% 0in /  0.0mm
15:39 88.5 °F /  31.4 °C 62.4 °F /  16.9 °C 30in /  1014.2hPa NNE 10.7mph /  17.2km/h 18mph /  29km/h 41.8% 0in /  0.0mm
15:44 88.9 °F /  31.6 °C 62.2 °F /  16.8 °C 29.9in /  1014.0hPa NNE 10.6mph /  17km/h 18.5mph /  29.8km/h 41% 0in /  0.0mm
15:49 88.9 °F /  31.6 °C 62.1 °F /  16.7 °C 29.9in /  1014.0hPa NE 10mph /  16.1km/h 19mph /  30.6km/h 41% 0in /  0.0mm
15:54 88.7 °F /  31.5 °C 62.1 °F /  16.7 °C 29.9in /  1014.0hPa NE 10.2mph /  16.4km/h 18mph /  29km/h 41% 0in /  0.0mm
15:59 88.9 °F /  31.6 °C 62.1 °F /  16.7 °C 29.9in /  1013.9hPa NE 10.7mph /  17.2km/h 19mph /  30.6km/h 41% 0in /  0.0mm
16:04 88.7 °F /  31.5 °C 62.1 °F /  16.7 °C 29.9in /  1013.9hPa NE 10.5mph /  16.9km/h 20.1mph /  32.3km/h 41% 0in /  0.0mm
16:09 88.5 °F /  31.4 °C 61.3 °F /  16.3 °C 29.9in /  1013.9hPa NNE 10mph /  16.1km/h 20mph /  32.2km/h 40.1% 0in /  0.0mm
16:14 88.3 °F /  31.3 °C 61.5 °F /  16.4 °C 29.9in /  1013.8hPa NNE 10.1mph /  16.2km/h 19mph /  30.6km/h 40.7% 0in /  0.0mm
16:19 88.9 °F /  31.6 °C 61.3 °F /  16.3 °C 29.9in /  1013.8hPa NNE 10.2mph /  16.4km/h 18.4mph /  29.6km/h 40% 0in /  0.0mm
16:24 88.9 °F /  31.6 °C 61.5 °F /  16.4 °C 29.9in /  1013.8hPa NE 10.1mph /  16.3km/h 18mph /  29km/h 40.1% 0in /  0.0mm
16:29 89.1 °F /  31.7 °C 61.3 °F /  16.3 °C 29.9in /  1013.8hPa NE 10mph /  16.1km/h 18.4mph /  29.6km/h 39.6% 0in /  0.0mm
16:34 88.7 °F /  31.5 °C 61.3 °F /  16.3 °C 29.9in /  1013.8hPa NE 10.2mph /  16.4km/h 18.4mph /  29.6km/h 40% 0in /  0.0mm
16:39 88.5 °F /  31.4 °C 61.5 °F /  16.4 °C 29.9in /  1013.8hPa NE 10.7mph /  17.2km/h 19mph /  30.6km/h 40.6% 0in /  0.0mm
16:44 88.7 °F /  31.5 °C 61.3 °F /  16.3 °C 29.9in /  1013.7hPa NNE 10.8mph /  17.4km/h 19mph /  30.6km/h 40.1% 0in /  0.0mm
16:49 88.9 °F /  31.6 °C 61.7 °F /  16.5 °C 29.9in /  1013.7hPa NE 11.2mph /  18km/h 18mph /  29km/h 40.4% 0in /  0.0mm
16:54 88.9 °F /  31.6 °C 61.7 °F /  16.5 °C 29.9in /  1013.7hPa NE 10.7mph /  17.3km/h 16mph /  25.7km/h 40.5% 0in /  0.0mm
16:59 88.5 °F /  31.4 °C 61.7 °F /  16.5 °C 29.9in /  1013.6hPa NE 8.7mph /  14km/h 16.1mph /  25.9km/h 40.9% 0in /  0.0mm
17:04 88.5 °F /  31.4 °C 61.9 °F /  16.6 °C 29.9in /  1013.6hPa NE 8.9mph /  14.4km/h 16.1mph /  25.9km/h 41% 0in /  0.0mm
17:09 88.7 °F /  31.5 °C 61.9 °F /  16.6 °C 29.9in /  1013.6hPa NE 9.7mph /  15.6km/h 18.4mph /  29.6km/h 41% 0in /  0.0mm
17:14 89.1 °F /  31.7 °C 61.7 °F /  16.5 °C 29.9in /  1013.5hPa NE 9.7mph /  15.6km/h 18mph /  29km/h 40.2% 0in /  0.0mm
17:19 88.7 °F /  31.5 °C 61.7 °F /  16.5 °C 29.9in /  1013.5hPa NNE 9.7mph /  15.6km/h 17mph /  27.4km/h 40.6% 0in /  0.0mm
17:24 88.3 °F /  31.3 °C 61.7 °F /  16.5 °C 29.9in /  1013.5hPa NNE 9.6mph /  15.4km/h 15mph /  24.1km/h 41% 0in /  0.0mm
17:29 88.5 °F /  31.4 °C 61.9 °F /  16.6 °C 29.9in /  1013.5hPa ENE 9.2mph /  14.8km/h 15mph /  24.1km/h 41.1% 0in /  0.0mm
17:34 88.9 °F /  31.6 °C 61.9 °F /  16.6 °C 29.9in /  1013.5hPa NE 8.8mph /  14.2km/h 15mph /  24.1km/h 40.6% 0in /  0.0mm
17:39 89.1 °F /  31.7 °C 61.7 °F /  16.5 °C 29.9in /  1013.5hPa NE 7.4mph /  11.9km/h 17.8mph /  28.6km/h 40.1% 0in /  0.0mm
17:44 88.3 °F /  31.3 °C 61.2 °F /  16.2 °C 29.9in /  1013.4hPa NE 7.9mph /  12.7km/h 19.7mph /  31.7km/h 40.2% 0in /  0.0mm
17:49 88.2 °F /  31.2 °C 61.3 °F /  16.3 °C 29.9in /  1013.4hPa NE 9.7mph /  15.6km/h 20mph /  32.2km/h 40.8% 0in /  0.0mm
17:54 88.2 °F /  31.2 °C 62.2 °F /  16.8 °C 29.9in /  1013.4hPa NNE 9.4mph /  15.2km/h 16.1mph /  25.9km/h 41.9% 0in /  0.0mm
17:59 88.2 °F /  31.2 °C 62.2 °F /  16.8 °C 29.9in /  1013.3hPa NNE 8.5mph /  13.7km/h 20.8mph /  33.5km/h 42% 0in /  0.0mm
18:04 87.6 °F /  30.9 °C 62.4 °F /  16.9 °C 29.9in /  1013.3hPa NE 9mph /  14.5km/h 21mph /  33.8km/h 43% 0in /  0.0mm
18:09 87.4 °F /  30.8 °C 63 °F /  17.2 °C 29.9in /  1013.3hPa NE 11.4mph /  18.3km/h 19mph /  30.6km/h 44% 0in /  0.0mm
18:14 87.3 °F /  30.7 °C 62.4 °F /  16.9 °C 29.9in /  1013.3hPa NNE 11.4mph /  18.4km/h 20.7mph /  33.3km/h 43.6% 0in /  0.0mm
18:19 87.1 °F /  30.6 °C 63 °F /  17.2 °C 29.9in /  1013.3hPa NE 11.4mph /  18.4km/h 21mph /  33.8km/h 44.5% 0in /  0.0mm
18:24 87.1 °F /  30.6 °C 62.4 °F /  16.9 °C 29.9in /  1013.3hPa NNE 11.3mph /  18.2km/h 18.5mph /  29.8km/h 44% 0in /  0.0mm
18:29 86.9 °F /  30.5 °C 62.8 °F /  17.1 °C 29.9in /  1013.3hPa NNE 10.7mph /  17.2km/h 19mph /  30.6km/h 44.6% 0in /  0.0mm
18:34 86.7 °F /  30.4 °C 62.6 °F /  17 °C 29.9in /  1013.3hPa NNE 10.7mph /  17.2km/h 19mph /  30.6km/h 44.8% 0in /  0.0mm
18:39 86.7 °F /  30.4 °C 62.8 °F /  17.1 °C 29.9in /  1013.4hPa NNE 10.7mph /  17.2km/h 19mph /  30.6km/h 45% 0in /  0.0mm
18:44 86.4 °F /  30.2 °C 63.1 °F /  17.3 °C 29.9in /  1013.4hPa NNE 10.8mph /  17.4km/h 19.7mph /  31.7km/h 45.9% 0in /  0.0mm
18:49 86.2 °F /  30.1 °C 63.5 °F /  17.5 °C 29.9in /  1013.4hPa NNE 11.2mph /  18km/h 20mph /  32.2km/h 46.9% 0in /  0.0mm
18:54 86.2 °F /  30.1 °C 64.2 °F /  17.9 °C 29.9in /  1013.5hPa NE 10.9mph /  17.6km/h 17mph /  27.4km/h 48% 0in /  0.0mm
18:59 86.4 °F /  30.2 °C 63.9 °F /  17.7 °C 29.9in /  1013.5hPa NNE 9.7mph /  15.6km/h 17.5mph /  28.2km/h 47.1% 0in /  0.0mm
19:04 85.8 °F /  29.9 °C 64.4 °F /  18 °C 29.9in /  1013.5hPa NNE 9.8mph /  15.7km/h 20.8mph /  33.5km/h 48.7% 0in /  0.0mm
19:09 85.6 °F /  29.8 °C 64.2 °F /  17.9 °C 29.9in /  1013.6hPa NNE 10mph /  16.1km/h 21mph /  33.8km/h 48.9% 0in /  0.0mm
19:14 85.5 °F /  29.7 °C 64 °F /  17.8 °C 29.9in /  1013.6hPa NE 10.1mph /  16.2km/h 17mph /  27.4km/h 48.7% 0in /  0.0mm
19:19 85.6 °F /  29.8 °C 64.2 °F /  17.9 °C 29.9in /  1013.6hPa NE 10.2mph /  16.4km/h 17mph /  27.4km/h 49.1% 0in /  0.0mm
19:24 85.5 °F /  29.7 °C 64.8 °F /  18.2 °C 29.9in /  1013.7hPa NNE 9.9mph /  15.9km/h 17.3mph /  27.8km/h 50.1% 0in /  0.0mm
19:29 85.1 °F /  29.5 °C 64.4 °F /  18 °C 29.9in /  1013.7hPa NE 8.7mph /  14km/h 17mph /  27.4km/h 50.3% 0in /  0.0mm
19:34 84.7 °F /  29.3 °C 64.8 °F /  18.2 °C 29.9in /  1013.7hPa NNE 8.9mph /  14.3km/h 16.1mph /  25.9km/h 51% 0in /  0.0mm
19:39 84.7 °F /  29.3 °C 64.4 °F /  18 °C 29.9in /  1013.8hPa NNE 9.7mph /  15.6km/h 17.3mph /  27.8km/h 50.8% 0in /  0.0mm
19:44 84.6 °F /  29.2 °C 64.2 °F /  17.9 °C 29.9in /  1013.8hPa NNE 9.7mph /  15.6km/h 17mph /  27.4km/h 50.9% 0in /  0.0mm
19:49 84.6 °F /  29.2 °C 63.9 °F /  17.7 °C 29.9in /  1013.8hPa NNE 9.7mph /  15.6km/h 17.3mph /  27.8km/h 50.1% 0in /  0.0mm
19:54 84.4 °F /  29.1 °C 64.6 °F /  18.1 °C 29.9in /  1013.8hPa NNE 9.4mph /  15.1km/h 13.8mph /  22.2km/h 51.6% 0in /  0.0mm
19:59 84.2 °F /  29 °C 64.6 °F /  18.1 °C 29.9in /  1013.8hPa NNE 8.1mph /  13km/h 14mph /  22.5km/h 52% 0in /  0.0mm
20:04 84 °F /  28.9 °C 64.6 °F /  18.1 °C 29.9in /  1013.8hPa NE 7.9mph /  12.7km/h 14mph /  22.5km/h 52% 0in /  0.0mm
20:09 84 °F /  28.9 °C 64.2 °F /  17.9 °C 29.9in /  1014.1hPa NE 6.9mph /  11.1km/h 15mph /  24.1km/h 51.6% 0in /  0.0mm
20:14 84 °F /  28.9 °C 64.9 °F /  18.3 °C 29.9in /  1014.1hPa NE 6.9mph /  11.1km/h 15mph /  24.1km/h 52.8% 0in /  0.0mm
20:19 83.7 °F /  28.7 °C 64.4 °F /  18 °C 29.9in /  1014.1hPa NNE 6.9mph /  11.1km/h 16.3mph /  26.2km/h 52.4% 0in /  0.0mm
20:24 83.3 °F /  28.5 °C 64.2 °F /  17.9 °C 29.9in /  1014.1hPa NE 7.3mph /  11.8km/h 16mph /  25.7km/h 52.7% 0in /  0.0mm
20:29 83.1 °F /  28.4 °C 65.1 °F /  18.4 °C 29.9in /  1014.1hPa NE 9.2mph /  14.8km/h 14mph /  22.5km/h 54.6% 0in /  0.0mm
20:34 82.9 °F /  28.3 °C 65.5 °F /  18.6 °C 29.9in /  1014.1hPa NNE 8.9mph /  14.3km/h 16.1mph /  25.9km/h 55.7% 0in /  0.0mm
20:39 82.8 °F /  28.2 °C 65.7 °F /  18.7 °C 30in /  1014.3hPa NNE 7.6mph /  12.2km/h 16mph /  25.7km/h 56.6% 0in /  0.0mm
20:44 82.6 °F /  28.1 °C 66.2 °F /  19 °C 30in /  1014.3hPa NE 7.6mph /  12.2km/h 14mph /  22.5km/h 58% 0in /  0.0mm
20:49 82.2 °F /  27.9 °C 66 °F /  18.9 °C 30in /  1014.3hPa NE 7.4mph /  11.9km/h 14mph /  22.5km/h 58% 0in /  0.0mm
20:54 82 °F /  27.8 °C 65.8 °F /  18.8 °C 30in /  1014.5hPa NE 7.3mph /  11.8km/h 14mph /  22.5km/h 58% 0in /  0.0mm
20:59 81.9 °F /  27.7 °C 65.8 °F /  18.8 °C 30in /  1014.5hPa NNE 6.9mph /  11.1km/h 13mph /  20.9km/h 58.4% 0in /  0.0mm
21:04 81.7 °F /  27.6 °C 66 °F /  18.9 °C 30in /  1014.5hPa NNE 6.8mph /  11km/h 12mph /  19.3km/h 59.2% 0in /  0.0mm
21:09 81.5 °F /  27.5 °C 66.2 °F /  19 °C 30in /  1014.6hPa NE 6.4mph /  10.3km/h 11.5mph /  18.5km/h 60% 0in /  0.0mm
21:14 81.1 °F /  27.3 °C 66.4 °F /  19.1 °C 30in /  1014.6hPa NNE 6.5mph /  10.5km/h 12mph /  19.3km/h 60.8% 0in /  0.0mm
21:19 81.1 °F /  27.3 °C 66.4 °F /  19.1 °C 30in /  1014.6hPa NE 6.9mph /  11.1km/h 10mph /  16.1km/h 61% 0in /  0.0mm
21:24 81 °F /  27.2 °C 66.6 °F /  19.2 °C 30in /  1014.7hPa NE 6.6mph /  10.7km/h 10.4mph /  16.7km/h 61.7% 0in /  0.0mm
21:29 80.8 °F /  27.1 °C 66.9 °F /  19.4 °C 30in /  1014.7hPa NNE 5.2mph /  8.4km/h 10.4mph /  16.7km/h 62.8% 0in /  0.0mm
21:34 80.6 °F /  27 °C 67.1 °F /  19.5 °C 30in /  1014.7hPa NNE 5.3mph /  8.6km/h 9mph /  14.5km/h 63.7% 0in /  0.0mm
21:39 80.4 °F /  26.9 °C 67.1 °F /  19.5 °C 30in /  1014.8hPa NE 5.9mph /  9.5km/h 10.4mph /  16.7km/h 64% 0in /  0.0mm
21:44 80.2 °F /  26.8 °C 67.3 °F /  19.6 °C 30in /  1014.8hPa NE 6mph /  9.6km/h 10mph /  16.1km/h 64.6% 0in /  0.0mm
21:49 80.1 °F /  26.7 °C 67.3 °F /  19.6 °C 30in /  1014.8hPa NNE 6.2mph /  10km/h 9mph /  14.5km/h 65% 0in /  0.0mm
21:54 80.1 °F /  26.7 °C 67.6 °F /  19.8 °C 30in /  1015.0hPa NNE 5.8mph /  9.3km/h 7mph /  11.3km/h 65.9% 0in /  0.0mm
21:59 80.1 °F /  26.7 °C 67.8 °F /  19.9 °C 30in /  1015.0hPa NNE 4.3mph /  6.9km/h 7.4mph /  11.9km/h 66.4% 0in /  0.0mm
22:04 79.9 °F /  26.6 °C 67.8 °F /  19.9 °C 30in /  1015.0hPa NE 4.3mph /  6.9km/h 7mph /  11.3km/h 67% 0in /  0.0mm
22:09 79.9 °F /  26.6 °C 68.2 °F /  20.1 °C 30in /  1015.4hPa NNE 4.3mph /  6.9km/h 7mph /  11.3km/h 67.5% 0in /  0.0mm
22:14 79.7 °F /  26.5 °C 68.2 °F /  20.1 °C 30in /  1015.4hPa NE 4.3mph /  7km/h 9.2mph /  14.8km/h 68% 0in /  0.0mm
22:19 79.5 °F /  26.4 °C 68 °F /  20 °C 30in /  1015.4hPa NNE 4.7mph /  7.6km/h 8.5mph /  13.7km/h 68% 0in /  0.0mm
22:24 79.5 °F /  26.4 °C 68 °F /  20 °C 30in /  1015.5hPa NE 4.5mph /  7.3km/h 9mph /  14.5km/h 68% 0in /  0.0mm
22:29 79.3 °F /  26.3 °C 68.2 °F /  20.1 °C 30in /  1015.5hPa NE 4mph /  6.5km/h 9.7mph /  15.6km/h 68.8% 0in /  0.0mm
22:34 79.2 °F /  26.2 °C 68.2 °F /  20.1 °C 30in /  1015.5hPa NE 4.3mph /  6.9km/h 10mph /  16.1km/h 69% 0in /  0.0mm
22:39 79.2 °F /  26.2 °C 68 °F /  20 °C 30in /  1015.5hPa NE 5.2mph /  8.4km/h 8.1mph /  13km/h 69% 0in /  0.0mm
22:44 79 °F /  26.1 °C 68.4 °F /  20.2 °C 30in /  1015.5hPa NNE 5.1mph /  8.2km/h 8mph /  12.9km/h 69.8% 0in /  0.0mm
22:49 79 °F /  26.1 °C 68.4 °F /  20.2 °C 30in /  1015.5hPa NNE 4.7mph /  7.6km/h 7mph /  11.3km/h 70% 0in /  0.0mm
22:54 79 °F /  26.1 °C 68.4 °F /  20.2 °C 30in /  1015.7hPa NNE 4.6mph /  7.4km/h 7.4mph /  11.9km/h 70% 0in /  0.0mm
22:59 78.8 °F /  26 °C 68.7 °F /  20.4 °C 30in /  1015.7hPa NNE 4mph /  6.5km/h 8.1mph /  13km/h 71% 0in /  0.0mm
23:04 78.6 °F /  25.9 °C 68.4 °F /  20.2 °C 30in /  1015.7hPa NNE 4.3mph /  6.9km/h 8.1mph /  13km/h 71% 0in /  0.0mm
23:09 78.4 °F /  25.8 °C 68.4 °F /  20.2 °C 30in /  1015.7hPa NNE 5.2mph /  8.4km/h 8.1mph /  13km/h 71% 0in /  0.0mm
23:14 78.3 °F /  25.7 °C 68.4 °F /  20.2 °C 30in /  1015.7hPa NNE 5.2mph /  8.4km/h 8mph /  12.9km/h 71.4% 0in /  0.0mm
23:19 78.3 °F /  25.7 °C 68.5 °F /  20.3 °C 30in /  1015.7hPa NNE 5.2mph /  8.4km/h 7mph /  11.3km/h 72% 0in /  0.0mm
23:24 78.1 °F /  25.6 °C 68.5 °F /  20.3 °C 30in /  1015.7hPa NNE 5mph /  8.1km/h 7mph /  11.3km/h 72.4% 0in /  0.0mm
23:29 78.1 °F /  25.6 °C 68.7 °F /  20.4 °C 30in /  1015.7hPa NNE 4.3mph /  6.9km/h 7mph /  11.3km/h 73% 0in /  0.0mm
23:34 78.1 °F /  25.6 °C 68.5 °F /  20.3 °C 30in /  1015.7hPa NNE 4.2mph /  6.8km/h 7mph /  11.3km/h 73% 0in /  0.0mm
23:39 77.9 °F /  25.5 °C 68.5 °F /  20.3 °C 30in /  1015.8hPa NNE 4mph /  6.5km/h 6mph /  9.7km/h 73% 0in /  0.0mm
23:44 77.9 °F /  25.5 °C 68.7 °F /  20.4 °C 30in /  1015.8hPa NNE 3.9mph /  6.3km/h 6mph /  9.7km/h 73.7% 0in /  0.0mm
23:49 77.7 °F /  25.4 °C 68.7 °F /  20.4 °C 30in /  1015.8hPa NNE 3.6mph /  5.8km/h 5.9mph /  9.5km/h 74% 0in /  0.0mm
23:54 77.7 °F /  25.4 °C 68.7 °F /  20.4 °C 30in /  1015.9hPa NNE 3.6mph /  5.8km/h 6mph /  9.7km/h 74% 0in /  0.0mm
23:59 77.7 °F /  25.4 °C 68.9 °F /  20.5 °C 30in /  1015.9hPa NE 3.6mph /  5.8km/h 6mph /  9.7km/h 74% 0in /  0.0mm
Murcia-Puente Tocinos, España
Compliments of Weather Underground - 3 mb

La estación de MeteoMurcia.com, publica sus datos en los siguientes proyectos:

Weather Underground PWS IMURCIAP2 Meteoclimatic www.awekas.at

W3Counter
Web Analytics